sensor_id;sensor_type;location;lat;lon;timestamp;P1;durP1;ratioP1;P2;durP2;ratioP2
55212;SDS011;41083;52.932;6.674;2023-04-01T00:01:38;2.88;;;1.30;;
55212;SDS011;41083;52.932;6.674;2023-04-01T00:04:04;2.78;;;1.30;;
55212;SDS011;41083;52.932;6.674;2023-04-01T00:06:30;2.83;;;1.35;;
55212;SDS011;41083;52.932;6.674;2023-04-01T00:08:56;3.70;;;1.77;;
55212;SDS011;41083;52.932;6.674;2023-04-01T00:11:21;3.33;;;1.67;;
55212;SDS011;41083;52.932;6.674;2023-04-01T00:13:47;7.03;;;1.70;;
55212;SDS011;41083;52.932;6.674;2023-04-01T00:16:13;3.20;;;1.48;;
55212;SDS011;41083;52.932;6.674;2023-04-01T00:18:39;3.33;;;1.30;;
55212;SDS011;41083;52.932;6.674;2023-04-01T00:21:05;3.65;;;1.58;;
55212;SDS011;41083;52.932;6.674;2023-04-01T00:23:31;3.92;;;1.45;;
55212;SDS011;41083;52.932;6.674;2023-04-01T00:25:58;3.75;;;1.50;;
55212;SDS011;41083;52.932;6.674;2023-04-01T00:28:26;2.13;;;1.27;;
55212;SDS011;41083;52.932;6.674;2023-04-01T00:30:51;2.92;;;1.45;;
55212;SDS011;41083;52.932;6.674;2023-04-01T00:33:17;3.50;;;1.60;;
55212;SDS011;41083;52.932;6.674;2023-04-01T00:35:43;5.30;;;1.80;;
55212;SDS011;41083;52.932;6.674;2023-04-01T00:38:09;5.03;;;1.58;;
55212;SDS011;41083;52.932;6.674;2023-04-01T00:40:40;2.90;;;1.25;;
55212;SDS011;41083;52.932;6.674;2023-04-01T00:43:24;3.40;;;1.88;;
55212;SDS011;41083;52.932;6.674;2023-04-01T00:45:50;3.25;;;1.75;;
55212;SDS011;41083;52.932;6.674;2023-04-01T00:48:17;3.85;;;1.20;;
55212;SDS011;41083;52.932;6.674;2023-04-01T00:50:58;6.40;;;1.63;;
55212;SDS011;41083;52.932;6.674;2023-04-01T00:53:27;3.42;;;1.50;;
55212;SDS011;41083;52.932;6.674;2023-04-01T00:56:02;2.42;;;1.13;;
55212;SDS011;41083;52.932;6.674;2023-04-01T00:58:33;2.75;;;1.17;;
55212;SDS011;41083;52.932;6.674;2023-04-01T01:01:03;3.95;;;1.30;;
55212;SDS011;41083;52.932;6.674;2023-04-01T01:03:29;2.10;;;1.40;;
55212;SDS011;41083;52.932;6.674;2023-04-01T01:08:59;3.15;;;1.40;;
55212;SDS011;41083;52.932;6.674;2023-04-01T01:17:02;2.65;;;1.13;;
55212;SDS011;41083;52.932;6.674;2023-04-01T01:24:51;2.50;;;1.17;;
55212;SDS011;41083;52.932;6.674;2023-04-01T01:27:23;4.32;;;1.88;;
55212;SDS011;41083;52.932;6.674;2023-04-01T01:32:38;2.63;;;0.98;;
55212;SDS011;41083;52.932;6.674;2023-04-01T01:35:16;2.28;;;1.30;;
55212;SDS011;41083;52.932;6.674;2023-04-01T01:38:14;2.42;;;1.10;;
55212;SDS011;41083;52.932;6.674;2023-04-01T01:40:43;3.00;;;1.48;;
55212;SDS011;41083;52.932;6.674;2023-04-01T01:43:11;2.10;;;1.02;;
55212;SDS011;41083;52.932;6.674;2023-04-01T01:45:43;3.30;;;1.48;;
55212;SDS011;41083;52.932;6.674;2023-04-01T01:48:13;4.35;;;1.30;;
55212;SDS011;41083;52.932;6.674;2023-04-01T01:50:41;1.77;;;0.95;;
55212;SDS011;41083;52.932;6.674;2023-04-01T01:53:09;1.80;;;0.80;;
55212;SDS011;41083;52.932;6.674;2023-04-01T01:55:43;2.53;;;0.80;;
55212;SDS011;41083;52.932;6.674;2023-04-01T02:00:43;3.45;;;1.17;;
55212;SDS011;41083;52.932;6.674;2023-04-01T02:03:13;2.67;;;1.20;;
55212;SDS011;41083;52.932;6.674;2023-04-01T02:05:42;2.55;;;0.90;;
55212;SDS011;41083;52.932;6.674;2023-04-01T02:08:13;2.10;;;0.93;;
55212;SDS011;41083;52.932;6.674;2023-04-01T02:10:45;1.80;;;0.80;;
55212;SDS011;41083;52.932;6.674;2023-04-01T02:16:18;1.10;;;0.60;;
55212;SDS011;41083;52.932;6.674;2023-04-01T02:18:49;1.77;;;0.60;;
55212;SDS011;41083;52.932;6.674;2023-04-01T02:21:18;1.83;;;0.77;;
55212;SDS011;41083;52.932;6.674;2023-04-01T02:23:46;1.77;;;0.85;;
55212;SDS011;41083;52.932;6.674;2023-04-01T02:26:12;0.77;;;0.43;;
55212;SDS011;41083;52.932;6.674;2023-04-01T02:28:39;1.85;;;0.80;;
55212;SDS011;41083;52.932;6.674;2023-04-01T02:31:08;1.88;;;0.75;;
55212;SDS011;41083;52.932;6.674;2023-04-01T02:33:35;2.45;;;1.05;;
55212;SDS011;41083;52.932;6.674;2023-04-01T02:36:03;1.42;;;0.70;;
55212;SDS011;41083;52.932;6.674;2023-04-01T02:38:30;2.25;;;0.90;;
55212;SDS011;41083;52.932;6.674;2023-04-01T02:40:57;2.20;;;0.80;;
55212;SDS011;41083;52.932;6.674;2023-04-01T02:43:25;1.77;;;0.68;;
55212;SDS011;41083;52.932;6.674;2023-04-01T02:45:51;2.35;;;0.70;;
55212;SDS011;41083;52.932;6.674;2023-04-01T02:48:16;2.35;;;0.90;;
55212;SDS011;41083;52.932;6.674;2023-04-01T02:50:42;1.25;;;0.60;;
55212;SDS011;41083;52.932;6.674;2023-04-01T02:53:08;3.13;;;1.00;;
55212;SDS011;41083;52.932;6.674;2023-04-01T02:55:34;1.85;;;0.90;;
55212;SDS011;41083;52.932;6.674;2023-04-01T02:58:00;1.95;;;1.05;;
55212;SDS011;41083;52.932;6.674;2023-04-01T03:00:26;2.42;;;1.08;;
55212;SDS011;41083;52.932;6.674;2023-04-01T03:02:52;2.70;;;1.10;;
55212;SDS011;41083;52.932;6.674;2023-04-01T03:05:18;2.05;;;1.02;;
55212;SDS011;41083;52.932;6.674;2023-04-01T03:07:44;2.53;;;1.10;;
55212;SDS011;41083;52.932;6.674;2023-04-01T03:10:10;1.52;;;0.80;;
55212;SDS011;41083;52.932;6.674;2023-04-01T03:12:35;2.35;;;0.85;;
55212;SDS011;41083;52.932;6.674;2023-04-01T03:15:01;2.42;;;1.27;;
55212;SDS011;41083;52.932;6.674;2023-04-01T03:17:27;2.25;;;0.98;;
55212;SDS011;41083;52.932;6.674;2023-04-01T03:19:52;3.15;;;1.13;;
55212;SDS011;41083;52.932;6.674;2023-04-01T03:22:18;2.92;;;1.23;;
55212;SDS011;41083;52.932;6.674;2023-04-01T03:24:46;1.98;;;0.95;;
55212;SDS011;41083;52.932;6.674;2023-04-01T03:27:15;2.53;;;1.00;;
55212;SDS011;41083;52.932;6.674;2023-04-01T03:29:40;5.28;;;1.35;;
55212;SDS011;41083;52.932;6.674;2023-04-01T03:32:06;1.98;;;1.02;;
55212;SDS011;41083;52.932;6.674;2023-04-01T03:34:31;3.22;;;1.30;;
55212;SDS011;41083;52.932;6.674;2023-04-01T03:36:57;2.95;;;1.15;;
55212;SDS011;41083;52.932;6.674;2023-04-01T03:39:23;3.35;;;1.35;;
55212;SDS011;41083;52.932;6.674;2023-04-01T03:41:50;4.18;;;1.30;;
55212;SDS011;41083;52.932;6.674;2023-04-01T03:44:15;3.08;;;1.48;;
55212;SDS011;41083;52.932;6.674;2023-04-01T03:46:41;3.30;;;1.30;;
55212;SDS011;41083;52.932;6.674;2023-04-01T03:49:10;3.63;;;1.35;;
55212;SDS011;41083;52.932;6.674;2023-04-01T03:51:45;8.05;;;2.42;;
55212;SDS011;41083;52.932;6.674;2023-04-01T03:54:11;4.47;;;1.50;;
55212;SDS011;41083;52.932;6.674;2023-04-01T03:56:37;4.65;;;1.17;;
55212;SDS011;41083;52.932;6.674;2023-04-01T03:59:03;4.43;;;1.60;;
55212;SDS011;41083;52.932;6.674;2023-04-01T04:01:30;2.92;;;1.20;;
55212;SDS011;41083;52.932;6.674;2023-04-01T04:03:56;2.65;;;1.02;;
55212;SDS011;41083;52.932;6.674;2023-04-01T04:06:22;3.78;;;1.60;;
55212;SDS011;41083;52.932;6.674;2023-04-01T04:08:49;3.28;;;1.48;;
55212;SDS011;41083;52.932;6.674;2023-04-01T04:11:15;4.35;;;1.42;;
55212;SDS011;41083;52.932;6.674;2023-04-01T04:13:41;3.22;;;1.42;;
55212;SDS011;41083;52.932;6.674;2023-04-01T04:16:08;3.65;;;1.52;;
55212;SDS011;41083;52.932;6.674;2023-04-01T04:18:35;3.55;;;1.40;;
55212;SDS011;41083;52.932;6.674;2023-04-01T04:21:01;3.38;;;1.27;;
55212;SDS011;41083;52.932;6.674;2023-04-01T04:23:27;3.42;;;1.35;;
55212;SDS011;41083;52.932;6.674;2023-04-01T04:25:58;2.85;;;1.25;;
55212;SDS011;41083;52.932;6.674;2023-04-01T04:28:27;4.38;;;1.38;;
55212;SDS011;41083;52.932;6.674;2023-04-01T04:30:53;4.07;;;1.20;;
55212;SDS011;41083;52.932;6.674;2023-04-01T04:33:20;3.80;;;1.10;;
55212;SDS011;41083;52.932;6.674;2023-04-01T04:35:46;1.88;;;0.98;;
55212;SDS011;41083;52.932;6.674;2023-04-01T04:38:12;3.22;;;1.25;;
55212;SDS011;41083;52.932;6.674;2023-04-01T04:40:39;3.58;;;1.50;;
55212;SDS011;41083;52.932;6.674;2023-04-01T04:43:06;3.35;;;1.20;;
55212;SDS011;41083;52.932;6.674;2023-04-01T04:45:31;3.67;;;1.40;;
55212;SDS011;41083;52.932;6.674;2023-04-01T04:47:57;3.88;;;1.30;;
55212;SDS011;41083;52.932;6.674;2023-04-01T04:50:23;2.97;;;1.25;;
55212;SDS011;41083;52.932;6.674;2023-04-01T04:52:50;4.63;;;1.58;;
55212;SDS011;41083;52.932;6.674;2023-04-01T04:55:16;3.28;;;1.42;;
55212;SDS011;41083;52.932;6.674;2023-04-01T04:57:42;3.60;;;1.45;;
55212;SDS011;41083;52.932;6.674;2023-04-01T05:00:08;4.72;;;1.60;;
55212;SDS011;41083;52.932;6.674;2023-04-01T05:02:35;3.45;;;1.48;;
55212;SDS011;41083;52.932;6.674;2023-04-01T05:05:01;3.30;;;1.42;;
55212;SDS011;41083;52.932;6.674;2023-04-01T05:07:26;4.65;;;1.65;;
55212;SDS011;41083;52.932;6.674;2023-04-01T05:09:52;5.32;;;2.20;;
55212;SDS011;41083;52.932;6.674;2023-04-01T05:12:18;6.00;;;1.73;;
55212;SDS011;41083;52.932;6.674;2023-04-01T05:14:43;4.38;;;1.88;;
55212;SDS011;41083;52.932;6.674;2023-04-01T05:17:10;4.47;;;1.98;;
55212;SDS011;41083;52.932;6.674;2023-04-01T05:19:36;5.35;;;1.65;;
55212;SDS011;41083;52.932;6.674;2023-04-01T05:22:03;6.93;;;2.45;;
55212;SDS011;41083;52.932;6.674;2023-04-01T05:24:29;4.30;;;2.20;;
55212;SDS011;41083;52.932;6.674;2023-04-01T05:26:55;4.53;;;1.90;;
55212;SDS011;41083;52.932;6.674;2023-04-01T05:29:21;6.45;;;1.73;;
55212;SDS011;41083;52.932;6.674;2023-04-01T05:31:46;3.78;;;1.45;;
55212;SDS011;41083;52.932;6.674;2023-04-01T05:34:12;4.90;;;2.00;;
55212;SDS011;41083;52.932;6.674;2023-04-01T05:36:38;4.80;;;1.98;;
55212;SDS011;41083;52.932;6.674;2023-04-01T05:39:04;3.95;;;1.60;;
55212;SDS011;41083;52.932;6.674;2023-04-01T05:41:30;3.88;;;1.92;;
55212;SDS011;41083;52.932;6.674;2023-04-01T05:43:56;3.97;;;1.58;;
55212;SDS011;41083;52.932;6.674;2023-04-01T05:46:21;5.60;;;2.00;;
55212;SDS011;41083;52.932;6.674;2023-04-01T05:48:47;6.38;;;2.13;;
55212;SDS011;41083;52.932;6.674;2023-04-01T05:51:13;5.55;;;2.38;;
55212;SDS011;41083;52.932;6.674;2023-04-01T05:53:40;4.63;;;1.67;;
55212;SDS011;41083;52.932;6.674;2023-04-01T05:56:06;3.55;;;1.60;;
55212;SDS011;41083;52.932;6.674;2023-04-01T05:58:34;4.40;;;1.88;;
55212;SDS011;41083;52.932;6.674;2023-04-01T06:01:01;2.85;;;1.27;;
55212;SDS011;41083;52.932;6.674;2023-04-01T06:03:31;5.57;;;1.48;;
55212;SDS011;41083;52.932;6.674;2023-04-01T06:05:57;3.35;;;1.20;;
55212;SDS011;41083;52.932;6.674;2023-04-01T06:08:23;4.47;;;1.73;;
55212;SDS011;41083;52.932;6.674;2023-04-01T06:44:56;3.17;;;1.13;;
55212;SDS011;41083;52.932;6.674;2023-04-01T06:50:29;2.67;;;1.25;;
55212;SDS011;41083;52.932;6.674;2023-04-01T06:53:09;4.13;;;1.70;;
55212;SDS011;41083;52.932;6.674;2023-04-01T07:01:41;5.35;;;1.95;;
55212;SDS011;41083;52.932;6.674;2023-04-01T07:04:33;5.32;;;1.80;;
55212;SDS011;41083;52.932;6.674;2023-04-01T07:07:08;6.57;;;1.98;;
55212;SDS011;41083;52.932;6.674;2023-04-01T07:09:48;4.68;;;1.77;;
55212;SDS011;41083;52.932;6.674;2023-04-01T07:15:02;5.45;;;2.30;;
55212;SDS011;41083;52.932;6.674;2023-04-01T07:17:35;7.60;;;3.00;;
55212;SDS011;41083;52.932;6.674;2023-04-01T07:23:06;5.20;;;2.33;;
55212;SDS011;41083;52.932;6.674;2023-04-01T07:25:42;5.47;;;2.10;;
55212;SDS011;41083;52.932;6.674;2023-04-01T07:28:12;7.07;;;3.47;;
55212;SDS011;41083;52.932;6.674;2023-04-01T07:30:51;6.90;;;3.47;;
55212;SDS011;41083;52.932;6.674;2023-04-01T07:33:50;7.57;;;3.28;;
55212;SDS011;41083;52.932;6.674;2023-04-01T07:42:16;7.38;;;2.55;;
55212;SDS011;41083;52.932;6.674;2023-04-01T07:47:34;7.75;;;2.53;;
55212;SDS011;41083;52.932;6.674;2023-04-01T07:50:03;6.85;;;2.35;;
55212;SDS011;41083;52.932;6.674;2023-04-01T08:01:18;5.93;;;2.30;;
55212;SDS011;41083;52.932;6.674;2023-04-01T08:04:05;6.65;;;1.95;;
55212;SDS011;41083;52.932;6.674;2023-04-01T08:06:45;8.20;;;2.25;;
55212;SDS011;41083;52.932;6.674;2023-04-01T08:09:21;6.55;;;2.47;;
55212;SDS011;41083;52.932;6.674;2023-04-01T08:17:05;5.68;;;1.75;;
55212;SDS011;41083;52.932;6.674;2023-04-01T08:22:37;4.88;;;1.73;;
55212;SDS011;41083;52.932;6.674;2023-04-01T08:25:12;6.80;;;2.35;;
55212;SDS011;41083;52.932;6.674;2023-04-01T08:27:45;4.05;;;1.58;;
55212;SDS011;41083;52.932;6.674;2023-04-01T08:30:18;4.32;;;1.52;;
55212;SDS011;41083;52.932;6.674;2023-04-01T08:33:01;3.95;;;1.40;;
55212;SDS011;41083;52.932;6.674;2023-04-01T08:35:39;6.25;;;1.90;;
55212;SDS011;41083;52.932;6.674;2023-04-01T08:41:18;4.93;;;1.67;;
55212;SDS011;41083;52.932;6.674;2023-04-01T08:43:51;5.75;;;1.75;;
55212;SDS011;41083;52.932;6.674;2023-04-01T08:49:50;4.88;;;2.03;;
55212;SDS011;41083;52.932;6.674;2023-04-01T08:52:36;3.80;;;1.63;;
55212;SDS011;41083;52.932;6.674;2023-04-01T09:06:57;11.90;;;3.88;;
55212;SDS011;41083;52.932;6.674;2023-04-01T09:12:48;5.47;;;2.38;;
55212;SDS011;41083;52.932;6.674;2023-04-01T09:15:30;7.13;;;2.60;;
55212;SDS011;41083;52.932;6.674;2023-04-01T09:26:49;5.25;;;2.38;;
55212;SDS011;41083;52.932;6.674;2023-04-01T09:32:11;7.68;;;2.83;;
55212;SDS011;41083;52.932;6.674;2023-04-01T09:40:18;5.55;;;2.30;;
55212;SDS011;41083;52.932;6.674;2023-04-01T10:06:51;5.82;;;2.88;;
55212;SDS011;41083;52.932;6.674;2023-04-01T10:09:39;6.07;;;2.45;;
55212;SDS011;41083;52.932;6.674;2023-04-01T10:15:32;8.32;;;3.05;;
55212;SDS011;41083;52.932;6.674;2023-04-01T10:18:28;9.95;;;3.20;;
55212;SDS011;41083;52.932;6.674;2023-04-01T10:21:21;8.43;;;3.10;;
55212;SDS011;41083;52.932;6.674;2023-04-01T10:23:52;6.97;;;2.33;;
55212;SDS011;41083;52.932;6.674;2023-04-01T10:29:28;6.63;;;2.88;;
55212;SDS011;41083;52.932;6.674;2023-04-01T10:32:27;4.47;;;1.95;;
55212;SDS011;41083;52.932;6.674;2023-04-01T10:49:06;5.38;;;2.50;;
55212;SDS011;41083;52.932;6.674;2023-04-01T10:54:17;6.45;;;2.08;;
55212;SDS011;41083;52.932;6.674;2023-04-01T10:57:25;4.25;;;2.05;;
55212;SDS011;41083;52.932;6.674;2023-04-01T11:03:02;3.78;;;1.42;;
55212;SDS011;41083;52.932;6.674;2023-04-01T11:06:14;4.80;;;1.90;;
55212;SDS011;41083;52.932;6.674;2023-04-01T11:15:15;3.03;;;1.50;;
55212;SDS011;41083;52.932;6.674;2023-04-01T11:18:24;7.53;;;3.10;;
55212;SDS011;41083;52.932;6.674;2023-04-01T11:32:43;2.65;;;1.05;;
55212;SDS011;41083;52.932;6.674;2023-04-01T11:38:24;4.45;;;2.20;;
55212;SDS011;41083;52.932;6.674;2023-04-01T11:43:59;4.68;;;1.80;;
55212;SDS011;41083;52.932;6.674;2023-04-01T11:46:48;5.55;;;1.80;;
55212;SDS011;41083;52.932;6.674;2023-04-01T11:49:45;4.00;;;1.67;;
55212;SDS011;41083;52.932;6.674;2023-04-01T11:57:56;3.22;;;1.30;;
55212;SDS011;41083;52.932;6.674;2023-04-01T12:14:09;3.00;;;1.00;;
55212;SDS011;41083;52.932;6.674;2023-04-01T12:19:48;3.67;;;1.23;;
55212;SDS011;41083;52.932;6.674;2023-04-01T12:22:31;2.65;;;1.05;;
55212;SDS011;41083;52.932;6.674;2023-04-01T12:25:38;1.77;;;0.90;;
55212;SDS011;41083;52.932;6.674;2023-04-01T12:28:25;1.90;;;1.02;;
55212;SDS011;41083;52.932;6.674;2023-04-01T12:31:12;4.05;;;1.92;;
55212;SDS011;41083;52.932;6.674;2023-04-01T12:34:09;3.00;;;1.50;;
55212;SDS011;41083;52.932;6.674;2023-04-01T12:39:33;2.40;;;1.10;;
55212;SDS011;41083;52.932;6.674;2023-04-01T12:42:07;2.03;;;1.00;;
55212;SDS011;41083;52.932;6.674;2023-04-01T12:47:39;2.13;;;1.00;;
55212;SDS011;41083;52.932;6.674;2023-04-01T12:53:30;2.22;;;0.88;;
55212;SDS011;41083;52.932;6.674;2023-04-01T12:56:02;2.05;;;1.13;;
55212;SDS011;41083;52.932;6.674;2023-04-01T12:58:50;3.65;;;1.15;;
55212;SDS011;41083;52.932;6.674;2023-04-01T13:01:27;1.52;;;0.90;;
55212;SDS011;41083;52.932;6.674;2023-04-01T13:12:42;2.20;;;1.20;;
55212;SDS011;41083;52.932;6.674;2023-04-01T13:16:19;2.92;;;1.50;;
55212;SDS011;41083;52.932;6.674;2023-04-01T13:18:32;2.85;;;1.27;;
55212;SDS011;41083;52.932;6.674;2023-04-01T13:21:10;1.58;;;0.82;;
55212;SDS011;41083;52.932;6.674;2023-04-01T13:23:52;3.17;;;1.20;;
55212;SDS011;41083;52.932;6.674;2023-04-01T13:31:41;2.53;;;1.00;;
55212;SDS011;41083;52.932;6.674;2023-04-01T14:06:14;1.50;;;0.63;;
55212;SDS011;41083;52.932;6.674;2023-04-01T14:12:04;1.05;;;0.43;;
55212;SDS011;41083;52.932;6.674;2023-04-01T14:18:12;2.17;;;1.02;;
55212;SDS011;41083;52.932;6.674;2023-04-01T14:20:16;1.17;;;0.60;;
55212;SDS011;41083;52.932;6.674;2023-04-01T14:26:02;3.88;;;1.05;;
55212;SDS011;41083;52.932;6.674;2023-04-01T14:31:34;1.95;;;1.13;;
55212;SDS011;41083;52.932;6.674;2023-04-01T14:42:53;1.90;;;1.15;;
55212;SDS011;41083;52.932;6.674;2023-04-01T14:45:55;1.40;;;0.93;;
55212;SDS011;41083;52.932;6.674;2023-04-01T14:48:39;1.02;;;0.60;;
55212;SDS011;41083;52.932;6.674;2023-04-01T14:51:15;2.08;;;1.02;;
55212;SDS011;41083;52.932;6.674;2023-04-01T14:54:03;1.35;;;0.80;;
55212;SDS011;41083;52.932;6.674;2023-04-01T14:56:36;3.67;;;2.88;;
55212;SDS011;41083;52.932;6.674;2023-04-01T14:59:13;2.67;;;1.13;;
55212;SDS011;41083;52.932;6.674;2023-04-01T15:02:18;0.88;;;0.60;;
55212;SDS011;41083;52.932;6.674;2023-04-01T15:19:14;1.20;;;0.68;;
55212;SDS011;41083;52.932;6.674;2023-04-01T15:22:15;2.35;;;1.00;;
55212;SDS011;41083;52.932;6.674;2023-04-01T15:27:50;1.20;;;0.65;;
55212;SDS011;41083;52.932;6.674;2023-04-01T15:33:03;0.90;;;0.50;;
55212;SDS011;41083;52.932;6.674;2023-04-01T15:35:39;1.70;;;0.85;;
55212;SDS011;41083;52.932;6.674;2023-04-01T15:38:36;1.00;;;0.50;;
55212;SDS011;41083;52.932;6.674;2023-04-01T15:43:44;0.85;;;0.57;;
55212;SDS011;41083;52.932;6.674;2023-04-01T16:02:22;1.50;;;0.88;;
55212;SDS011;41083;52.932;6.674;2023-04-01T16:16:19;1.75;;;0.80;;
55212;SDS011;41083;52.932;6.674;2023-04-01T16:19:04;3.80;;;1.10;;
55212;SDS011;41083;52.932;6.674;2023-04-01T16:22:09;2.20;;;1.05;;
55212;SDS011;41083;52.932;6.674;2023-04-01T16:24:43;1.88;;;1.13;;
55212;SDS011;41083;52.932;6.674;2023-04-01T16:27:36;1.80;;;1.00;;
55212;SDS011;41083;52.932;6.674;2023-04-01T16:41:39;3.55;;;1.40;;
55212;SDS011;41083;52.932;6.674;2023-04-01T16:46:43;1.50;;;0.93;;
55212;SDS011;41083;52.932;6.674;2023-04-01T16:57:52;3.25;;;1.48;;
55212;SDS011;41083;52.932;6.674;2023-04-01T17:00:28;1.98;;;1.08;;
55212;SDS011;41083;52.932;6.674;2023-04-01T17:08:29;2.50;;;1.55;;
55212;SDS011;41083;52.932;6.674;2023-04-01T17:12:03;3.83;;;1.30;;
55212;SDS011;41083;52.932;6.674;2023-04-01T17:17:11;2.38;;;1.42;;
55212;SDS011;41083;52.932;6.674;2023-04-01T17:28:35;2.55;;;1.33;;
55212;SDS011;41083;52.932;6.674;2023-04-01T17:36:36;3.67;;;1.50;;
55212;SDS011;41083;52.932;6.674;2023-04-01T17:42:14;5.35;;;2.17;;
55212;SDS011;41083;52.932;6.674;2023-04-01T17:53:25;4.38;;;1.75;;
55212;SDS011;41083;52.932;6.674;2023-04-01T17:56:17;4.22;;;1.90;;
55212;SDS011;41083;52.932;6.674;2023-04-01T18:02:10;3.47;;;1.50;;
55212;SDS011;41083;52.932;6.674;2023-04-01T18:15:40;2.88;;;1.55;;
55212;SDS011;41083;52.932;6.674;2023-04-01T18:21:00;3.85;;;2.08;;
55212;SDS011;41083;52.932;6.674;2023-04-01T18:23:46;4.07;;;1.92;;
55212;SDS011;41083;52.932;6.674;2023-04-01T18:26:21;4.38;;;1.60;;
55212;SDS011;41083;52.932;6.674;2023-04-01T18:28:59;3.60;;;1.90;;
55212;SDS011;41083;52.932;6.674;2023-04-01T18:32:07;4.75;;;2.45;;
55212;SDS011;41083;52.932;6.674;2023-04-01T18:37:42;4.80;;;2.03;;
55212;SDS011;41083;52.932;6.674;2023-04-01T18:45:41;3.75;;;1.77;;
55212;SDS011;41083;52.932;6.674;2023-04-01T18:51:26;5.90;;;2.40;;
55212;SDS011;41083;52.932;6.674;2023-04-01T18:54:11;4.82;;;1.80;;
55212;SDS011;41083;52.932;6.674;2023-04-01T18:56:47;4.43;;;1.85;;
55212;SDS011;41083;52.932;6.674;2023-04-01T19:07:55;3.53;;;2.00;;
55212;SDS011;41083;52.932;6.674;2023-04-01T19:10:11;5.88;;;1.90;;
55212;SDS011;41083;52.932;6.674;2023-04-01T19:12:40;4.55;;;2.45;;
55212;SDS011;41083;52.932;6.674;2023-04-01T19:15:13;3.55;;;1.90;;
55212;SDS011;41083;52.932;6.674;2023-04-01T19:17:54;4.32;;;1.75;;
55212;SDS011;41083;52.932;6.674;2023-04-01T19:20:29;4.78;;;2.50;;
55212;SDS011;41083;52.932;6.674;2023-04-01T19:25:38;4.25;;;2.08;;
55212;SDS011;41083;52.932;6.674;2023-04-01T19:28:17;3.92;;;2.08;;
55212;SDS011;41083;52.932;6.674;2023-04-01T19:31:22;5.57;;;1.45;;
55212;SDS011;41083;52.932;6.674;2023-04-01T19:39:31;3.25;;;1.73;;
55212;SDS011;41083;52.932;6.674;2023-04-01T19:45:29;5.75;;;2.42;;
55212;SDS011;41083;52.932;6.674;2023-04-01T19:54:20;3.85;;;1.92;;
55212;SDS011;41083;52.932;6.674;2023-04-01T19:57:17;4.90;;;2.03;;
55212;SDS011;41083;52.932;6.674;2023-04-01T20:05:38;3.45;;;1.60;;
55212;SDS011;41083;52.932;6.674;2023-04-01T20:11:11;3.33;;;1.98;;
55212;SDS011;41083;52.932;6.674;2023-04-01T20:14:01;7.53;;;2.85;;
55212;SDS011;41083;52.932;6.674;2023-04-01T20:16:47;3.03;;;2.20;;
55212;SDS011;41083;52.932;6.674;2023-04-01T20:20:02;5.65;;;3.15;;
55212;SDS011;41083;52.932;6.674;2023-04-01T20:22:08;4.93;;;2.50;;
55212;SDS011;41083;52.932;6.674;2023-04-01T20:24:50;5.25;;;2.50;;
55212;SDS011;41083;52.932;6.674;2023-04-01T20:27:19;5.38;;;2.53;;
55212;SDS011;41083;52.932;6.674;2023-04-01T20:30:04;4.80;;;2.88;;
55212;SDS011;41083;52.932;6.674;2023-04-01T20:32:55;5.68;;;2.08;;
55212;SDS011;41083;52.932;6.674;2023-04-01T20:35:31;4.90;;;2.13;;
55212;SDS011;41083;52.932;6.674;2023-04-01T20:38:27;5.78;;;2.20;;
55212;SDS011;41083;52.932;6.674;2023-04-01T20:41:13;6.32;;;2.25;;
55212;SDS011;41083;52.932;6.674;2023-04-01T20:46:47;3.97;;;2.50;;
55212;SDS011;41083;52.932;6.674;2023-04-01T20:55:00;2.85;;;1.90;;
55212;SDS011;41083;52.932;6.674;2023-04-01T21:00:24;4.90;;;2.42;;
55212;SDS011;41083;52.932;6.674;2023-04-01T21:03:09;5.70;;;2.33;;
55212;SDS011;41083;52.932;6.674;2023-04-01T21:06:08;4.57;;;2.17;;
55212;SDS011;41083;52.932;6.674;2023-04-01T21:08:43;4.75;;;2.50;;
55212;SDS011;41083;52.932;6.674;2023-04-01T21:16:50;4.57;;;2.25;;
55212;SDS011;41083;52.932;6.674;2023-04-01T21:19:39;3.58;;;2.15;;
55212;SDS011;41083;52.932;6.674;2023-04-01T21:25:21;3.80;;;1.92;;
55212;SDS011;41083;52.932;6.674;2023-04-01T21:36:20;8.55;;;3.03;;
55212;SDS011;41083;52.932;6.674;2023-04-01T21:39:16;3.63;;;1.95;;
55212;SDS011;41083;52.932;6.674;2023-04-01T21:44:51;3.80;;;2.10;;
55212;SDS011;41083;52.932;6.674;2023-04-01T21:55:45;4.00;;;2.40;;
55212;SDS011;41083;52.932;6.674;2023-04-01T21:58:46;5.10;;;2.13;;
55212;SDS011;41083;52.932;6.674;2023-04-01T22:07:12;4.75;;;2.00;;
55212;SDS011;41083;52.932;6.674;2023-04-01T22:09:49;4.10;;;2.08;;
55212;SDS011;41083;52.932;6.674;2023-04-01T22:12:37;2.60;;;1.60;;
55212;SDS011;41083;52.932;6.674;2023-04-01T22:17:48;4.18;;;1.77;;
55212;SDS011;41083;52.932;6.674;2023-04-01T22:20:23;3.92;;;1.85;;
55212;SDS011;41083;52.932;6.674;2023-04-01T22:22:59;3.38;;;1.88;;
55212;SDS011;41083;52.932;6.674;2023-04-01T22:28:34;3.10;;;1.80;;
55212;SDS011;41083;52.932;6.674;2023-04-01T22:31:08;3.00;;;1.70;;
55212;SDS011;41083;52.932;6.674;2023-04-01T22:36:27;3.63;;;1.75;;
55212;SDS011;41083;52.932;6.674;2023-04-01T22:44:34;3.33;;;1.67;;
55212;SDS011;41083;52.932;6.674;2023-04-01T22:56:07;4.60;;;2.03;;
55212;SDS011;41083;52.932;6.674;2023-04-01T22:58:53;4.78;;;1.90;;
55212;SDS011;41083;52.932;6.674;2023-04-01T23:01:26;3.05;;;1.63;;
55212;SDS011;41083;52.932;6.674;2023-04-01T23:03:55;3.55;;;1.77;;
55212;SDS011;41083;52.932;6.674;2023-04-01T23:06:25;5.20;;;1.75;;
55212;SDS011;41083;52.932;6.674;2023-04-01T23:28:14;3.70;;;1.60;;
55212;SDS011;41083;52.932;6.674;2023-04-01T23:35:48;3.83;;;1.57;;
55212;SDS011;41083;52.932;6.674;2023-04-01T23:38:17;4.78;;;1.88;;
55212;SDS011;41083;52.932;6.674;2023-04-01T23:40:48;4.28;;;1.75;;
55212;SDS011;41083;52.932;6.674;2023-04-01T23:43:24;3.67;;;1.67;;
55212;SDS011;41083;52.932;6.674;2023-04-01T23:45:52;3.15;;;1.60;;
55212;SDS011;41083;52.932;6.674;2023-04-01T23:48:21;2.90;;;1.65;;
55212;SDS011;41083;52.932;6.674;2023-04-01T23:50:50;3.42;;;1.70;;
55212;SDS011;41083;52.932;6.674;2023-04-01T23:53:17;3.50;;;1.85;;
55212;SDS011;41083;52.932;6.674;2023-04-01T23:55:46;4.60;;;1.60;;
55212;SDS011;41083;52.932;6.674;2023-04-01T23:58:18;2.97;;;1.30;;
